Archival Weather

Chicago O'Hare International

Chicago, Illinois (KORD)

Report from: Saturday, May 20, 2023 6:51 PM CDT
Current time: Sunday, February 25, 2024 2:55 PM CST

Current weather – Weather history – Daily summaries
Weather forecast

Temperature20.6°C (69.1°F)
Dew point5.0°C (41.0°F)
Winds 8 kts (4.1 m/s, 9.2 mph) East (100°)
Visibility10 mi. (16.1 km)
Clouds Few clouds 25,000 ft. (7,620 m)
Altimeter30.11 in.Hg (1020 mB)
Relative humidity36 %
Density altitude568 ft. (173 m)
Sea-level pressure102.0 kPa (1020 mB, 30.11 in.Hg)
Max temp last 6 hours22.8°C (73.0°F)
Min temp last 6 hours18.9°C (66.0°F)
Remarks Automated weather observing station with precipitation discriminator
Pressure falling more slowly
Flight conditions Visual Meteorological Conditions
Raw dataKORD 202351Z 10008KT 10SM FEW250 21/05 A3011 RMK AO2 SLP197 T02060050 10228 20189 56006
An error has occurred. This application may no longer respond until reloaded. Reload 🗙